createdAt,value
2018-09-30T00:00:25.698Z,2.77
2018-09-30T00:02:53.408Z,2.60
2018-09-30T00:05:21.293Z,2.40
2018-09-30T00:07:49.140Z,2.20
2018-09-30T00:10:16.950Z,2.40
2018-09-30T00:12:44.653Z,2.30
2018-09-30T00:15:12.392Z,2.50
2018-09-30T00:17:40.091Z,2.80
2018-09-30T00:20:07.806Z,2.60
2018-09-30T00:22:35.585Z,2.50
2018-09-30T00:25:08.876Z,2.50
2018-09-30T00:27:36.693Z,2.20
2018-09-30T00:30:04.690Z,2.73
2018-09-30T00:32:32.448Z,2.63
2018-09-30T00:35:00.290Z,3.23
2018-09-30T00:37:28.126Z,2.97
2018-09-30T00:39:55.844Z,3.40
2018-09-30T00:42:23.673Z,3.67
2018-09-30T00:44:51.519Z,3.40
2018-09-30T00:47:19.323Z,3.00
2018-09-30T00:49:47.209Z,2.97
2018-09-30T00:52:15.010Z,2.87
2018-09-30T00:54:42.757Z,2.93
2018-09-30T00:57:10.828Z,2.33
2018-09-30T00:59:38.654Z,3.10
2018-09-30T01:02:06.491Z,2.47
2018-09-30T01:04:34.420Z,3.10
2018-09-30T01:07:02.225Z,2.57
2018-09-30T01:09:30.022Z,3.17
2018-09-30T01:11:57.985Z,2.37
2018-09-30T01:14:25.861Z,3.60
2018-09-30T01:16:53.723Z,2.60
2018-09-30T01:19:21.666Z,3.30
2018-09-30T01:21:49.462Z,2.80
2018-09-30T01:24:17.309Z,2.60
2018-09-30T01:26:45.093Z,2.77
2018-09-30T01:29:12.878Z,3.00
2018-09-30T01:31:40.685Z,2.83
2018-09-30T01:34:08.502Z,4.13
2018-09-30T01:36:36.262Z,3.33
2018-09-30T01:39:04.546Z,3.03
2018-09-30T01:41:32.314Z,3.57
2018-09-30T01:44:00.381Z,3.97
2018-09-30T01:46:28.185Z,2.97
2018-09-30T01:48:55.920Z,3.43
2018-09-30T01:51:23.684Z,3.50
2018-09-30T01:53:51.439Z,3.67
2018-09-30T01:56:19.230Z,2.77
2018-09-30T01:58:46.932Z,2.77
2018-09-30T02:01:14.752Z,3.30
2018-09-30T02:03:42.539Z,3.10
2018-09-30T02:06:10.276Z,2.58
2018-09-30T02:08:38.009Z,2.98
2018-09-30T02:11:05.927Z,2.90
2018-09-30T02:13:33.699Z,2.35
2018-09-30T02:16:01.433Z,2.47
2018-09-30T02:18:29.271Z,2.45
2018-09-30T02:20:57.045Z,2.70
2018-09-30T02:23:24.958Z,2.12
2018-09-30T02:25:52.755Z,2.72
2018-09-30T02:28:20.489Z,2.77
2018-09-30T02:30:48.187Z,2.17
2018-09-30T02:33:15.977Z,1.65
2018-09-30T02:35:43.922Z,2.50
2018-09-30T02:38:11.915Z,2.55
2018-09-30T02:40:39.762Z,2.10
2018-09-30T02:43:07.652Z,1.93
2018-09-30T02:45:35.492Z,1.93
2018-09-30T02:48:03.385Z,2.60
2018-09-30T02:50:31.233Z,2.33
2018-09-30T02:52:59.089Z,2.13
2018-09-30T02:55:26.955Z,2.07
2018-09-30T02:57:54.903Z,1.80
2018-09-30T03:00:22.653Z,2.07
2018-09-30T03:02:50.494Z,1.87
2018-09-30T03:05:18.421Z,2.03
2018-09-30T03:07:51.810Z,1.73
2018-09-30T03:10:19.565Z,3.07
2018-09-30T03:12:47.274Z,2.60
2018-09-30T03:15:15.146Z,2.10
2018-09-30T03:17:42.864Z,2.43
2018-09-30T03:20:10.726Z,2.23
2018-09-30T03:22:38.457Z,2.70
2018-09-30T03:25:06.226Z,2.87
2018-09-30T03:27:33.957Z,3.00
2018-09-30T03:30:01.786Z,2.58
2018-09-30T03:32:29.522Z,2.75
2018-09-30T03:34:57.297Z,2.45
2018-09-30T03:37:25.038Z,2.60
2018-09-30T03:39:52.803Z,2.35
2018-09-30T03:42:20.555Z,2.70
2018-09-30T03:44:48.318Z,2.50
2018-09-30T03:47:16.111Z,2.42
2018-09-30T03:49:43.823Z,2.45
2018-09-30T03:52:11.863Z,2.63
2018-09-30T03:54:39.781Z,2.50
2018-09-30T03:57:07.724Z,3.22
2018-09-30T03:59:35.490Z,4.23
2018-09-30T04:02:03.472Z,5.93
2018-09-30T04:04:31.297Z,8.17
2018-09-30T04:06:59.055Z,7.63
2018-09-30T04:09:26.852Z,6.67
2018-09-30T04:11:54.725Z,5.30
2018-09-30T04:14:22.577Z,5.13
2018-09-30T04:16:50.408Z,4.73
2018-09-30T04:19:18.247Z,3.80
2018-09-30T04:21:46.124Z,4.30
2018-09-30T04:24:13.957Z,4.23
2018-09-30T04:26:42.431Z,5.00
2018-09-30T04:29:10.220Z,3.73
2018-09-30T04:31:38.200Z,2.90
2018-09-30T04:34:06.083Z,2.90
2018-09-30T04:36:34.704Z,3.00
2018-09-30T04:39:02.975Z,2.03
2018-09-30T04:41:30.866Z,1.87
2018-09-30T04:43:58.778Z,1.83
2018-09-30T04:46:26.535Z,1.73
2018-09-30T04:48:54.250Z,1.47
2018-09-30T04:51:21.901Z,1.10
2018-09-30T04:53:49.675Z,1.42
2018-09-30T04:56:17.682Z,1.57
2018-09-30T04:58:45.521Z,1.17
2018-09-30T05:01:13.376Z,1.50
2018-09-30T05:03:41.205Z,1.30
2018-09-30T05:06:08.978Z,1.93
2018-09-30T05:08:36.903Z,1.57
2018-09-30T05:11:04.767Z,1.80
2018-09-30T05:13:32.590Z,1.33
2018-09-30T05:16:00.426Z,1.50
2018-09-30T05:18:28.177Z,1.60
2018-09-30T05:20:55.929Z,1.40
2018-09-30T05:23:23.799Z,1.50
2018-09-30T05:25:51.578Z,1.53
2018-09-30T05:28:19.360Z,1.93
2018-09-30T05:30:47.183Z,1.47
2018-09-30T05:33:14.996Z,1.50
2018-09-30T05:35:42.960Z,1.47
2018-09-30T05:38:10.853Z,1.30
2018-09-30T05:40:38.583Z,1.30
2018-09-30T05:43:06.396Z,1.83
2018-09-30T05:45:34.139Z,2.33
2018-09-30T06:41:02.563Z,1.40
2018-09-30T06:43:31.492Z,1.40
2018-09-30T06:46:00.373Z,1.45
2018-09-30T06:50:57.422Z,20.25
2018-09-30T06:53:26.382Z,3.55
2018-09-30T06:58:23.599Z,3.22
2018-09-30T07:00:52.508Z,1.70
2018-09-30T07:03:21.374Z,1.40
2018-09-30T07:08:18.406Z,1.17
2018-09-30T07:10:47.436Z,1.70
2018-09-30T07:13:16.417Z,1.22
2018-09-30T07:15:45.394Z,1.30
2018-09-30T07:20:42.372Z,1.50
2018-09-30T07:23:11.364Z,1.30
2018-09-30T07:28:08.353Z,1.47
2018-09-30T07:30:37.032Z,7.05
2018-09-30T07:33:05.944Z,10.32
2018-09-30T07:35:34.765Z,2.40
2018-09-30T07:38:03.591Z,2.80
2018-09-30T07:40:32.373Z,2.20
2018-09-30T07:45:29.037Z,1.80
2018-09-30T07:47:57.959Z,1.67
2018-09-30T07:50:26.798Z,1.60
2018-09-30T07:52:55.705Z,1.35
2018-09-30T07:55:25.091Z,1.50
2018-09-30T07:57:54.044Z,1.55
2018-09-30T08:00:22.946Z,1.65
2018-09-30T08:02:51.780Z,1.72
2018-09-30T08:05:20.620Z,1.57
2018-09-30T08:07:49.512Z,1.52
2018-09-30T08:10:18.372Z,1.57
2018-09-30T08:15:15.192Z,1.52
2018-09-30T08:17:43.966Z,2.00
2018-09-30T08:20:12.763Z,1.70
2018-09-30T08:22:41.624Z,1.50
2018-09-30T08:25:10.621Z,1.95
2018-09-30T08:27:39.860Z,3.72
2018-09-30T08:30:08.708Z,1.77
2018-09-30T08:32:37.646Z,1.80
2018-09-30T08:35:06.642Z,1.50
2018-09-30T08:37:41.245Z,1.45
2018-09-30T08:40:10.129Z,1.37
2018-09-30T08:42:39.002Z,1.67
2018-09-30T08:45:08.078Z,1.40
2018-09-30T08:47:36.940Z,4.53
2018-09-30T08:50:05.905Z,3.17
2018-09-30T08:52:34.724Z,3.27
2018-09-30T08:55:03.654Z,5.53
2018-09-30T08:57:32.548Z,2.20
2018-09-30T09:00:01.385Z,1.10
2018-09-30T09:04:58.388Z,2.70
2018-09-30T09:09:55.412Z,2.50
2018-09-30T09:12:24.390Z,5.08
2018-09-30T09:14:53.388Z,2.40
2018-09-30T09:19:50.642Z,2.85
2018-09-30T09:22:19.581Z,3.40
2018-09-30T09:24:48.416Z,2.50
2018-09-30T09:27:17.254Z,2.58
2018-09-30T09:29:46.061Z,4.03
2018-09-30T09:32:15.386Z,2.90
2018-09-30T09:37:12.328Z,1.40
2018-09-30T09:39:41.033Z,1.70
2018-09-30T09:42:10.047Z,2.70
2018-09-30T09:44:39.058Z,2.70
2018-09-30T09:47:07.996Z,1.60
2018-09-30T09:49:36.837Z,1.40
2018-09-30T09:52:06.063Z,2.60
2018-09-30T09:54:35.249Z,1.50
2018-09-30T09:57:04.040Z,1.40
2018-09-30T09:59:32.964Z,2.22
2018-09-30T10:02:01.906Z,2.00
2018-09-30T10:04:30.720Z,3.33
2018-09-30T10:06:59.810Z,1.20
2018-09-30T10:09:28.707Z,1.20
2018-09-30T10:11:57.610Z,1.95
2018-09-30T10:14:26.522Z,1.30
2018-09-30T10:16:55.447Z,1.40
2018-09-30T10:19:24.452Z,1.20
2018-09-30T10:21:53.243Z,1.45
2018-09-30T10:24:22.049Z,1.30
2018-09-30T10:26:50.899Z,2.30
2018-09-30T10:29:19.804Z,1.20
2018-09-30T10:31:48.705Z,1.50
2018-09-30T10:34:17.645Z,1.32
2018-09-30T10:36:46.668Z,1.20
2018-09-30T10:39:15.875Z,1.42
2018-09-30T10:41:44.701Z,1.75
2018-09-30T10:44:13.617Z,2.10
2018-09-30T10:46:42.385Z,1.57
2018-09-30T10:49:11.046Z,1.92
2018-09-30T10:51:39.935Z,1.92
2018-09-30T10:54:08.785Z,1.82
2018-09-30T10:56:37.596Z,1.62
2018-09-30T10:59:06.374Z,1.50
2018-09-30T11:01:35.336Z,1.52
2018-09-30T11:06:32.219Z,1.65
2018-09-30T11:09:01.020Z,3.00
2018-09-30T11:11:29.943Z,1.92
2018-09-30T11:13:58.808Z,1.87
2018-09-30T11:16:27.720Z,2.15
2018-09-30T11:18:56.708Z,1.92
2018-09-30T11:21:25.679Z,1.90
2018-09-30T11:23:54.661Z,2.00
2018-09-30T11:26:23.611Z,1.75
2018-09-30T11:28:52.605Z,1.65
2018-09-30T11:31:21.381Z,1.60
2018-09-30T11:33:50.047Z,1.30
2018-09-30T11:36:18.964Z,1.57
2018-09-30T11:38:47.844Z,1.90
2018-09-30T11:41:16.803Z,1.45
2018-09-30T11:43:45.813Z,1.25
2018-09-30T11:46:14.748Z,1.32
2018-09-30T11:48:43.591Z,1.55
2018-09-30T11:51:12.548Z,1.45
2018-09-30T11:55:03.200Z,1.27
2018-09-30T11:57:32.377Z,1.82
2018-09-30T12:02:29.560Z,1.70
2018-09-30T12:04:58.378Z,1.40
2018-09-30T12:09:55.088Z,1.45
2018-09-30T12:12:23.941Z,1.62
2018-09-30T12:14:52.783Z,1.42
2018-09-30T12:17:21.651Z,1.52
2018-09-30T12:19:50.628Z,1.52
2018-09-30T12:22:19.648Z,1.60
2018-09-30T12:24:48.661Z,1.65
2018-09-30T12:27:17.664Z,1.72
2018-09-30T12:29:46.653Z,2.58
2018-09-30T12:32:15.726Z,2.15
2018-09-30T12:34:44.649Z,1.60
2018-09-30T12:37:13.463Z,2.10
2018-09-30T12:39:42.385Z,2.20
2018-09-30T12:44:39.254Z,1.77
2018-09-30T12:47:08.012Z,1.60
2018-09-30T12:49:36.789Z,2.47
2018-09-30T12:52:05.709Z,2.37
2018-09-30T12:54:34.635Z,1.82
2018-09-30T12:57:03.645Z,2.30
2018-09-30T12:59:32.711Z,2.05
2018-09-30T13:02:01.682Z,1.80
2018-09-30T13:04:30.631Z,1.42
2018-09-30T13:06:59.615Z,1.52
2018-09-30T13:09:28.662Z,1.95
2018-09-30T13:11:57.504Z,1.90
2018-09-30T13:14:26.385Z,1.70
2018-09-30T13:19:23.863Z,1.60
2018-09-30T13:21:52.789Z,1.65
2018-09-30T13:24:21.709Z,1.57
2018-09-30T13:26:50.674Z,1.80
2018-09-30T13:29:19.576Z,2.00
2018-09-30T13:31:48.533Z,1.85
2018-09-30T13:34:17.303Z,1.37
2018-09-30T13:39:14.396Z,1.65
2018-09-30T13:44:11.388Z,1.50
2018-09-30T13:46:40.069Z,1.70
2018-09-30T13:49:08.910Z,1.98
2018-09-30T13:51:37.810Z,1.40
2018-09-30T13:54:06.728Z,1.80
2018-09-30T13:56:35.636Z,1.60
2018-09-30T13:59:04.375Z,1.45
2018-09-30T14:04:01.063Z,1.33
2018-09-30T14:06:29.953Z,1.27
2018-09-30T14:08:58.810Z,1.60
2018-09-30T14:11:27.727Z,1.90
2018-09-30T14:13:56.703Z,2.17
2018-09-30T14:16:25.638Z,3.35
2018-09-30T14:18:54.644Z,4.72
2018-09-30T14:21:23.718Z,3.50
2018-09-30T14:23:52.675Z,3.08
2018-09-30T14:26:21.624Z,2.22
2018-09-30T14:28:50.691Z,2.58
2018-09-30T14:31:19.747Z,2.10
2018-09-30T14:33:48.598Z,2.40
2018-09-30T14:36:17.624Z,2.20
2018-09-30T14:38:46.552Z,3.12
2018-09-30T14:41:15.369Z,2.47
2018-09-30T14:46:12.234Z,2.50
2018-09-30T14:48:41.052Z,1.90
2018-09-30T14:51:10.021Z,1.62
2018-09-30T14:53:38.801Z,2.15
2018-09-30T14:56:07.725Z,2.45
2018-09-30T14:58:37.314Z,2.98
2018-09-30T15:03:34.369Z,2.75
2018-09-30T15:07:43.331Z,1.97
2018-09-30T15:12:41.298Z,1.90
2018-09-30T15:15:10.566Z,1.80
2018-09-30T15:17:39.507Z,2.90
2018-09-30T15:20:08.380Z,2.12
2018-09-30T15:25:05.369Z,2.30
2018-09-30T15:30:02.091Z,4.12
2018-09-30T15:32:30.940Z,2.17
2018-09-30T15:34:59.774Z,2.10
2018-09-30T15:37:28.653Z,1.87
2018-09-30T15:39:57.568Z,2.42
2018-09-30T15:42:26.369Z,2.87
2018-09-30T15:44:55.047Z,3.00
2018-09-30T15:47:23.930Z,3.10
2018-09-30T15:49:52.696Z,3.17
2018-09-30T15:52:21.628Z,3.30
2018-09-30T15:54:50.372Z,3.00
2018-09-30T15:59:47.373Z,3.02
2018-09-30T16:04:44.083Z,2.67
2018-09-30T16:07:13.048Z,2.75
2018-09-30T16:09:41.925Z,2.98
2018-09-30T16:12:10.800Z,3.10
2018-09-30T16:14:39.701Z,2.75
2018-09-30T16:17:08.607Z,3.05
2018-09-30T16:19:37.369Z,3.25
2018-09-30T16:24:47.550Z,3.50
2018-09-30T16:27:16.501Z,3.35
2018-09-30T16:29:45.597Z,3.33
2018-09-30T16:32:14.546Z,3.98
2018-09-30T16:34:43.371Z,5.60
2018-09-30T16:39:40.053Z,3.95
2018-09-30T16:42:08.921Z,4.08
2018-09-30T16:44:37.839Z,22.05
2018-09-30T16:47:06.785Z,8.58
2018-09-30T16:49:35.705Z,5.92
2018-09-30T16:52:04.669Z,10.60
2018-09-30T16:54:33.622Z,10.15
2018-09-30T16:58:39.370Z,4.20
2018-09-30T17:01:08.374Z,4.47
2018-09-30T17:03:37.667Z,4.55
2018-09-30T17:06:06.798Z,4.12
2018-09-30T17:08:35.638Z,4.65
2018-09-30T17:11:04.638Z,4.33
2018-09-30T17:13:33.625Z,4.13
2018-09-30T17:16:24.362Z,4.77
2018-09-30T17:18:52.353Z,4.42
2018-09-30T17:21:20.373Z,4.47
2018-09-30T17:23:48.641Z,4.93
2018-09-30T17:26:16.774Z,4.77
2018-09-30T17:28:44.954Z,5.17
2018-09-30T17:31:14.443Z,5.30
2018-09-30T17:34:29.818Z,4.47
2018-09-30T17:37:01.175Z,5.03
2018-09-30T17:39:32.791Z,5.50
2018-09-30T17:42:04.234Z,5.57
2018-09-30T17:44:35.660Z,4.60
2018-09-30T17:47:07.797Z,4.70
2018-09-30T17:49:39.242Z,4.30
2018-09-30T17:52:11.019Z,4.70
2018-09-30T17:54:42.703Z,4.30
2018-09-30T17:57:14.032Z,4.43
2018-09-30T17:59:45.890Z,6.25
2018-09-30T18:02:17.575Z,4.78
2018-09-30T18:04:49.037Z,4.33
2018-09-30T18:07:21.608Z,4.78
2018-09-30T18:09:52.885Z,4.40
2018-09-30T18:12:24.673Z,15.40
2018-09-30T18:14:55.670Z,27.37
2018-09-30T18:17:26.780Z,21.82
2018-09-30T18:19:57.763Z,7.35
2018-09-30T18:22:29.399Z,4.97
2018-09-30T18:25:00.655Z,4.95
2018-09-30T18:27:32.030Z,4.45
2018-09-30T18:30:03.557Z,4.27
2018-09-30T18:32:34.774Z,4.57
2018-09-30T18:35:06.651Z,4.00
2018-09-30T18:37:38.021Z,4.37
2018-09-30T18:40:09.643Z,4.20
2018-09-30T18:42:40.883Z,4.65
2018-09-30T18:45:11.678Z,3.70
2018-09-30T18:47:42.813Z,4.37
2018-09-30T18:50:14.442Z,4.40
2018-09-30T18:52:45.681Z,4.07
2018-09-30T18:55:16.829Z,3.90
2018-09-30T18:57:48.078Z,4.00
2018-09-30T19:00:19.695Z,4.35
2018-09-30T19:02:51.249Z,4.00
2018-09-30T19:05:22.649Z,4.30
2018-09-30T19:07:53.902Z,4.45
2018-09-30T19:10:25.364Z,4.33
2018-09-30T19:12:56.688Z,3.90
2018-09-30T19:15:27.919Z,4.70
2018-09-30T19:17:59.363Z,4.00
2018-09-30T19:20:30.664Z,4.25
2018-09-30T19:23:01.799Z,4.10
2018-09-30T19:25:33.369Z,4.97
2018-09-30T19:28:04.653Z,4.00
2018-09-30T19:30:35.876Z,3.87
2018-09-30T19:33:07.589Z,4.25
2018-09-30T19:35:39.423Z,5.35
2018-09-30T19:38:10.796Z,4.65
2018-09-30T19:40:43.691Z,4.47
2018-09-30T19:43:15.266Z,4.30
2018-09-30T19:45:47.645Z,3.65
2018-09-30T19:48:19.370Z,3.83
2018-09-30T19:50:50.729Z,4.45
2018-09-30T19:53:21.692Z,4.10
2018-09-30T19:55:53.023Z,3.80
2018-09-30T19:58:24.628Z,4.22
2018-09-30T20:00:55.833Z,4.25
2018-09-30T20:03:27.548Z,4.00
2018-09-30T20:05:58.933Z,4.00
2018-09-30T20:08:32.553Z,3.80
2018-09-30T20:11:04.544Z,4.00
2018-09-30T20:13:35.676Z,3.43
2018-09-30T20:16:06.692Z,4.50
2018-09-30T20:18:38.082Z,4.42
2018-09-30T20:21:09.577Z,4.20
2018-09-30T20:23:40.693Z,4.63
2018-09-30T20:26:11.704Z,4.23
2018-09-30T20:28:43.478Z,4.47
2018-09-30T20:31:15.610Z,4.55
2018-09-30T20:33:46.885Z,4.50
2018-09-30T20:36:18.657Z,5.07
2018-09-30T20:41:03.049Z,3.85
2018-09-30T20:43:34.627Z,3.95
2018-09-30T20:46:06.205Z,3.97
2018-09-30T20:48:37.807Z,4.00
2018-09-30T20:51:09.801Z,4.27
2018-09-30T20:53:41.638Z,4.80
2018-09-30T20:56:12.781Z,4.22
2018-09-30T20:58:44.839Z,4.50
2018-09-30T21:01:16.245Z,4.25
2018-09-30T21:03:47.635Z,4.47
2018-09-30T21:08:17.476Z,4.27
2018-09-30T21:10:48.659Z,4.30
2018-09-30T21:15:50.435Z,4.00
2018-09-30T21:18:21.679Z,4.10
2018-09-30T21:20:52.802Z,4.03
2018-09-30T21:23:23.843Z,3.98
2018-09-30T21:25:55.237Z,4.23
2018-09-30T21:28:26.707Z,4.30
2018-09-30T21:30:58.243Z,3.80
2018-09-30T21:33:29.655Z,3.93
2018-09-30T21:36:00.931Z,4.00
2018-09-30T21:38:32.373Z,3.90
2018-09-30T21:41:03.922Z,3.67
2018-09-30T21:43:35.389Z,3.70
2018-09-30T21:46:06.636Z,3.77
2018-09-30T21:48:37.836Z,4.03
2018-09-30T21:51:09.538Z,4.00
2018-09-30T21:56:11.013Z,3.60
2018-09-30T21:58:42.625Z,3.50
2018-09-30T22:01:14.007Z,3.40
2018-09-30T22:03:45.300Z,3.27
2018-09-30T22:08:46.689Z,3.67
2018-09-30T22:11:17.771Z,3.10
2018-09-30T22:13:50.228Z,3.15
2018-09-30T22:16:21.587Z,3.00
2018-09-30T22:18:53.048Z,3.90
2018-09-30T22:21:23.896Z,3.55
2018-09-30T22:23:55.323Z,3.58
2018-09-30T22:26:26.633Z,3.40
2018-09-30T22:28:57.785Z,2.90
2018-09-30T22:31:28.665Z,3.02
2018-09-30T22:33:59.798Z,3.20
2018-09-30T22:37:48.693Z,3.70
2018-09-30T22:40:20.119Z,3.40
2018-09-30T22:42:51.686Z,3.95
2018-09-30T22:46:06.776Z,2.67
2018-09-30T22:48:37.869Z,3.60
2018-09-30T22:51:09.393Z,3.10
2018-09-30T22:56:10.836Z,2.57
2018-09-30T22:58:41.800Z,3.00
2018-09-30T23:01:12.836Z,3.30
2018-09-30T23:03:43.690Z,3.02
2018-09-30T23:06:14.915Z,3.10
2018-09-30T23:08:46.401Z,3.05
2018-09-30T23:11:17.652Z,3.05
2018-09-30T23:13:48.649Z,3.08
2018-09-30T23:16:19.771Z,2.67
2018-09-30T23:18:50.806Z,3.00
2018-09-30T23:21:21.678Z,2.83
2018-09-30T23:23:52.781Z,2.57
2018-09-30T23:26:23.683Z,2.70
2018-09-30T23:28:54.817Z,2.35
2018-09-30T23:31:25.889Z,2.65
2018-09-30T23:33:57.436Z,2.92
2018-09-30T23:36:28.662Z,2.80
2018-09-30T23:38:59.738Z,3.17
2018-09-30T23:41:30.813Z,2.70
2018-09-30T23:44:01.776Z,3.20
2018-09-30T23:46:32.826Z,2.83
2018-09-30T23:49:03.832Z,2.72
2018-09-30T23:51:35.411Z,2.40
2018-09-30T23:54:06.634Z,2.85
